sensor_id;sensor_type;location;lat;lon;timestamp;P1;durP1;ratioP1;P2;durP2;ratioP2
18883;SDS011;9574;47.282;9.640;2024-02-04T00:02:16;10.07;;;4.87;;
18883;SDS011;9574;47.282;9.640;2024-02-04T00:04:43;6.30;;;3.80;;
18883;SDS011;9574;47.282;9.640;2024-02-04T00:07:11;5.70;;;3.03;;
18883;SDS011;9574;47.282;9.640;2024-02-04T00:09:38;4.37;;;2.37;;
18883;SDS011;9574;47.282;9.640;2024-02-04T00:12:05;8.40;;;3.23;;
18883;SDS011;9574;47.282;9.640;2024-02-04T00:14:32;7.17;;;3.40;;
18883;SDS011;9574;47.282;9.640;2024-02-04T00:16:59;8.03;;;3.70;;
18883;SDS011;9574;47.282;9.640;2024-02-04T00:19:27;7.10;;;2.93;;
18883;SDS011;9574;47.282;9.640;2024-02-04T00:21:54;5.33;;;2.87;;
18883;SDS011;9574;47.282;9.640;2024-02-04T00:24:21;5.67;;;3.03;;
18883;SDS011;9574;47.282;9.640;2024-02-04T00:26:48;14.57;;;3.63;;
18883;SDS011;9574;47.282;9.640;2024-02-04T00:29:15;10.13;;;3.33;;
18883;SDS011;9574;47.282;9.640;2024-02-04T00:31:42;5.33;;;2.80;;
18883;SDS011;9574;47.282;9.640;2024-02-04T00:34:09;5.40;;;2.57;;
18883;SDS011;9574;47.282;9.640;2024-02-04T00:36:38;6.67;;;2.60;;
18883;SDS011;9574;47.282;9.640;2024-02-04T00:39:04;8.20;;;3.50;;
18883;SDS011;9574;47.282;9.640;2024-02-04T00:41:32;7.67;;;4.20;;
18883;SDS011;9574;47.282;9.640;2024-02-04T00:44:00;11.43;;;4.70;;
18883;SDS011;9574;47.282;9.640;2024-02-04T00:46:27;10.50;;;5.13;;
18883;SDS011;9574;47.282;9.640;2024-02-04T00:48:54;11.47;;;5.90;;
18883;SDS011;9574;47.282;9.640;2024-02-04T00:51:21;12.23;;;5.10;;
18883;SDS011;9574;47.282;9.640;2024-02-04T00:53:50;10.73;;;4.73;;
18883;SDS011;9574;47.282;9.640;2024-02-04T00:56:18;7.30;;;3.47;;
18883;SDS011;9574;47.282;9.640;2024-02-04T00:58:45;6.57;;;3.37;;
18883;SDS011;9574;47.282;9.640;2024-02-04T01:01:11;4.93;;;3.57;;
18883;SDS011;9574;47.282;9.640;2024-02-04T01:03:39;6.30;;;3.80;;
18883;SDS011;9574;47.282;9.640;2024-02-04T01:06:06;7.00;;;4.30;;
18883;SDS011;9574;47.282;9.640;2024-02-04T01:08:33;5.97;;;3.77;;
18883;SDS011;9574;47.282;9.640;2024-02-04T01:11:04;5.70;;;3.67;;
18883;SDS011;9574;47.282;9.640;2024-02-04T01:13:31;6.83;;;4.00;;
18883;SDS011;9574;47.282;9.640;2024-02-04T01:15:58;8.80;;;4.30;;
18883;SDS011;9574;47.282;9.640;2024-02-04T01:18:25;6.50;;;4.30;;
18883;SDS011;9574;47.282;9.640;2024-02-04T01:20:52;7.53;;;4.53;;
18883;SDS011;9574;47.282;9.640;2024-02-04T01:23:19;8.60;;;4.50;;
18883;SDS011;9574;47.282;9.640;2024-02-04T01:25:46;6.80;;;4.40;;
18883;SDS011;9574;47.282;9.640;2024-02-04T01:28:14;7.10;;;4.33;;
18883;SDS011;9574;47.282;9.640;2024-02-04T01:30:41;6.87;;;4.27;;
18883;SDS011;9574;47.282;9.640;2024-02-04T01:33:08;7.00;;;4.40;;
18883;SDS011;9574;47.282;9.640;2024-02-04T01:35:35;7.13;;;4.77;;
18883;SDS011;9574;47.282;9.640;2024-02-04T01:38:02;10.40;;;4.73;;
18883;SDS011;9574;47.282;9.640;2024-02-04T01:40:29;8.93;;;4.53;;
18883;SDS011;9574;47.282;9.640;2024-02-04T01:42:56;7.20;;;4.60;;
18883;SDS011;9574;47.282;9.640;2024-02-04T01:45:25;6.87;;;4.60;;
18883;SDS011;9574;47.282;9.640;2024-02-04T01:47:52;6.93;;;4.53;;
18883;SDS011;9574;47.282;9.640;2024-02-04T01:50:19;6.70;;;4.20;;
18883;SDS011;9574;47.282;9.640;2024-02-04T01:52:47;6.77;;;4.30;;
18883;SDS011;9574;47.282;9.640;2024-02-04T01:55:15;9.27;;;4.40;;
18883;SDS011;9574;47.282;9.640;2024-02-04T01:57:42;7.27;;;4.20;;
18883;SDS011;9574;47.282;9.640;2024-02-04T02:00:10;6.90;;;4.40;;
18883;SDS011;9574;47.282;9.640;2024-02-04T02:02:40;5.70;;;4.23;;
18883;SDS011;9574;47.282;9.640;2024-02-04T02:05:08;7.80;;;4.00;;
18883;SDS011;9574;47.282;9.640;2024-02-04T02:07:35;5.63;;;3.50;;
18883;SDS011;9574;47.282;9.640;2024-02-04T02:10:02;5.20;;;3.20;;
18883;SDS011;9574;47.282;9.640;2024-02-04T02:12:33;5.17;;;3.40;;
18883;SDS011;9574;47.282;9.640;2024-02-04T02:15:07;8.80;;;3.70;;
18883;SDS011;9574;47.282;9.640;2024-02-04T02:17:44;7.23;;;3.37;;
18883;SDS011;9574;47.282;9.640;2024-02-04T02:20:18;4.53;;;3.30;;
18883;SDS011;9574;47.282;9.640;2024-02-04T02:22:48;5.23;;;3.07;;
18883;SDS011;9574;47.282;9.640;2024-02-04T02:25:18;3.67;;;2.50;;
18883;SDS011;9574;47.282;9.640;2024-02-04T02:27:47;5.00;;;3.23;;
18883;SDS011;9574;47.282;9.640;2024-02-04T02:30:15;4.50;;;3.00;;
18883;SDS011;9574;47.282;9.640;2024-02-04T02:32:43;4.07;;;2.70;;
18883;SDS011;9574;47.282;9.640;2024-02-04T02:37:40;4.40;;;2.60;;
18883;SDS011;9574;47.282;9.640;2024-02-04T02:40:13;4.63;;;2.77;;
18883;SDS011;9574;47.282;9.640;2024-02-04T02:42:47;5.30;;;3.03;;
18883;SDS011;9574;47.282;9.640;2024-02-04T02:45:15;4.90;;;2.77;;
18883;SDS011;9574;47.282;9.640;2024-02-04T02:47:43;6.20;;;3.10;;
18883;SDS011;9574;47.282;9.640;2024-02-04T02:50:11;3.73;;;2.67;;
18883;SDS011;9574;47.282;9.640;2024-02-04T02:52:39;4.67;;;3.00;;
18883;SDS011;9574;47.282;9.640;2024-02-04T02:55:06;7.73;;;3.37;;
18883;SDS011;9574;47.282;9.640;2024-02-04T02:57:33;4.17;;;2.63;;
18883;SDS011;9574;47.282;9.640;2024-02-04T03:00:01;4.40;;;3.17;;
18883;SDS011;9574;47.282;9.640;2024-02-04T03:02:30;5.40;;;3.27;;
18883;SDS011;9574;47.282;9.640;2024-02-04T03:04:57;5.37;;;3.40;;
18883;SDS011;9574;47.282;9.640;2024-02-04T03:07:24;6.43;;;3.23;;
18883;SDS011;9574;47.282;9.640;2024-02-04T03:09:52;8.20;;;3.27;;
18883;SDS011;9574;47.282;9.640;2024-02-04T03:12:19;6.03;;;2.73;;
18883;SDS011;9574;47.282;9.640;2024-02-04T03:14:46;4.90;;;2.87;;
18883;SDS011;9574;47.282;9.640;2024-02-04T03:17:14;4.63;;;2.90;;
18883;SDS011;9574;47.282;9.640;2024-02-04T03:19:45;5.07;;;2.80;;
18883;SDS011;9574;47.282;9.640;2024-02-04T03:22:13;10.33;;;3.13;;
18883;SDS011;9574;47.282;9.640;2024-02-04T03:24:40;5.73;;;3.23;;
18883;SDS011;9574;47.282;9.640;2024-02-04T03:27:07;3.77;;;2.90;;
18883;SDS011;9574;47.282;9.640;2024-02-04T03:29:34;7.00;;;3.10;;
18883;SDS011;9574;47.282;9.640;2024-02-04T03:32:01;5.07;;;2.83;;
18883;SDS011;9574;47.282;9.640;2024-02-04T03:34:29;4.80;;;3.03;;
18883;SDS011;9574;47.282;9.640;2024-02-04T03:36:56;3.57;;;2.57;;
18883;SDS011;9574;47.282;9.640;2024-02-04T03:39:23;4.73;;;2.80;;
18883;SDS011;9574;47.282;9.640;2024-02-04T03:41:51;5.50;;;2.53;;
18883;SDS011;9574;47.282;9.640;2024-02-04T03:44:18;5.30;;;2.87;;
18883;SDS011;9574;47.282;9.640;2024-02-04T03:46:47;5.17;;;2.70;;
18883;SDS011;9574;47.282;9.640;2024-02-04T03:49:15;4.73;;;2.97;;
18883;SDS011;9574;47.282;9.640;2024-02-04T03:51:43;4.13;;;2.83;;
18883;SDS011;9574;47.282;9.640;2024-02-04T03:54:11;6.73;;;3.00;;
18883;SDS011;9574;47.282;9.640;2024-02-04T03:56:38;6.00;;;3.00;;
18883;SDS011;9574;47.282;9.640;2024-02-04T03:59:05;7.30;;;3.40;;
18883;SDS011;9574;47.282;9.640;2024-02-04T04:01:35;4.77;;;3.10;;
18883;SDS011;9574;47.282;9.640;2024-02-04T04:04:03;5.87;;;2.67;;
18883;SDS011;9574;47.282;9.640;2024-02-04T04:06:30;6.73;;;3.97;;
18883;SDS011;9574;47.282;9.640;2024-02-04T04:08:58;5.20;;;4.33;;
18883;SDS011;9574;47.282;9.640;2024-02-04T04:11:25;6.73;;;3.87;;
18883;SDS011;9574;47.282;9.640;2024-02-04T04:13:52;6.57;;;3.87;;
18883;SDS011;9574;47.282;9.640;2024-02-04T04:16:20;5.70;;;4.40;;
18883;SDS011;9574;47.282;9.640;2024-02-04T04:18:48;4.27;;;3.70;;
18883;SDS011;9574;47.282;9.640;2024-02-04T04:21:15;6.33;;;3.70;;
18883;SDS011;9574;47.282;9.640;2024-02-04T04:23:42;4.77;;;3.67;;
18883;SDS011;9574;47.282;9.640;2024-02-04T04:26:11;5.20;;;3.63;;
18883;SDS011;9574;47.282;9.640;2024-02-04T04:28:38;4.30;;;3.27;;
18883;SDS011;9574;47.282;9.640;2024-02-04T04:31:05;4.33;;;3.50;;
18883;SDS011;9574;47.282;9.640;2024-02-04T04:33:32;5.63;;;3.60;;
18883;SDS011;9574;47.282;9.640;2024-02-04T04:35:59;6.63;;;3.73;;
18883;SDS011;9574;47.282;9.640;2024-02-04T04:38:26;7.33;;;3.57;;
18883;SDS011;9574;47.282;9.640;2024-02-04T04:40:53;4.73;;;2.70;;
18883;SDS011;9574;47.282;9.640;2024-02-04T04:43:21;8.33;;;3.87;;
18883;SDS011;9574;47.282;9.640;2024-02-04T04:45:48;4.97;;;3.13;;
18883;SDS011;9574;47.282;9.640;2024-02-04T04:48:15;4.37;;;2.93;;
18883;SDS011;9574;47.282;9.640;2024-02-04T04:50:42;5.70;;;3.50;;
18883;SDS011;9574;47.282;9.640;2024-02-04T04:53:09;8.37;;;3.90;;
18883;SDS011;9574;47.282;9.640;2024-02-04T04:55:36;4.63;;;3.47;;
18883;SDS011;9574;47.282;9.640;2024-02-04T04:58:03;6.43;;;3.37;;
18883;SDS011;9574;47.282;9.640;2024-02-04T05:00:31;6.03;;;3.67;;
18883;SDS011;9574;47.282;9.640;2024-02-04T05:02:58;6.27;;;3.50;;
18883;SDS011;9574;47.282;9.640;2024-02-04T05:05:25;4.10;;;3.63;;
18883;SDS011;9574;47.282;9.640;2024-02-04T05:07:52;5.63;;;3.50;;
18883;SDS011;9574;47.282;9.640;2024-02-04T05:10:19;5.00;;;3.17;;
18883;SDS011;9574;47.282;9.640;2024-02-04T05:12:46;6.47;;;3.43;;
18883;SDS011;9574;47.282;9.640;2024-02-04T05:15:13;5.70;;;3.63;;
18883;SDS011;9574;47.282;9.640;2024-02-04T05:17:42;5.03;;;3.10;;
18883;SDS011;9574;47.282;9.640;2024-02-04T05:20:09;5.37;;;3.27;;
18883;SDS011;9574;47.282;9.640;2024-02-04T05:22:36;5.47;;;3.00;;
18883;SDS011;9574;47.282;9.640;2024-02-04T05:25:03;5.70;;;3.37;;
18883;SDS011;9574;47.282;9.640;2024-02-04T05:27:31;4.83;;;2.90;;
18883;SDS011;9574;47.282;9.640;2024-02-04T05:29:58;7.70;;;3.27;;
18883;SDS011;9574;47.282;9.640;2024-02-04T05:32:25;3.23;;;2.80;;
18883;SDS011;9574;47.282;9.640;2024-02-04T05:34:53;6.03;;;3.30;;
18883;SDS011;9574;47.282;9.640;2024-02-04T05:37:20;4.30;;;3.37;;
18883;SDS011;9574;47.282;9.640;2024-02-04T05:39:48;6.13;;;3.30;;
18883;SDS011;9574;47.282;9.640;2024-02-04T05:42:15;4.57;;;3.13;;
18883;SDS011;9574;47.282;9.640;2024-02-04T05:44:42;5.73;;;3.30;;
18883;SDS011;9574;47.282;9.640;2024-02-04T05:47:09;7.97;;;3.00;;
18883;SDS011;9574;47.282;9.640;2024-02-04T05:49:36;5.20;;;3.30;;
18883;SDS011;9574;47.282;9.640;2024-02-04T05:52:05;4.57;;;3.13;;
18883;SDS011;9574;47.282;9.640;2024-02-04T05:54:36;5.23;;;2.80;;
18883;SDS011;9574;47.282;9.640;2024-02-04T05:57:04;4.10;;;3.30;;
18883;SDS011;9574;47.282;9.640;2024-02-04T05:59:31;6.97;;;3.93;;
18883;SDS011;9574;47.282;9.640;2024-02-04T06:01:58;4.23;;;3.07;;
18883;SDS011;9574;47.282;9.640;2024-02-04T06:04:25;5.20;;;3.20;;
18883;SDS011;9574;47.282;9.640;2024-02-04T06:06:52;7.57;;;3.90;;
18883;SDS011;9574;47.282;9.640;2024-02-04T06:09:20;5.93;;;3.70;;
18883;SDS011;9574;47.282;9.640;2024-02-04T06:11:47;3.60;;;2.83;;
18883;SDS011;9574;47.282;9.640;2024-02-04T06:14:14;5.03;;;3.20;;
18883;SDS011;9574;47.282;9.640;2024-02-04T06:16:41;5.77;;;3.30;;
18883;SDS011;9574;47.282;9.640;2024-02-04T06:19:08;7.00;;;3.23;;
18883;SDS011;9574;47.282;9.640;2024-02-04T06:21:38;5.37;;;3.30;;
18883;SDS011;9574;47.282;9.640;2024-02-04T06:24:05;4.63;;;3.47;;
18883;SDS011;9574;47.282;9.640;2024-02-04T06:26:36;5.37;;;3.40;;
18883;SDS011;9574;47.282;9.640;2024-02-04T06:29:04;4.90;;;3.13;;
18883;SDS011;9574;47.282;9.640;2024-02-04T06:31:31;5.37;;;3.30;;
18883;SDS011;9574;47.282;9.640;2024-02-04T06:33:58;5.87;;;3.50;;
18883;SDS011;9574;47.282;9.640;2024-02-04T06:36:26;5.87;;;3.57;;
18883;SDS011;9574;47.282;9.640;2024-02-04T06:38:53;6.67;;;3.67;;
18883;SDS011;9574;47.282;9.640;2024-02-04T06:41:20;5.57;;;3.87;;
18883;SDS011;9574;47.282;9.640;2024-02-04T06:43:48;14.57;;;6.80;;
18883;SDS011;9574;47.282;9.640;2024-02-04T06:46:23;14.13;;;6.53;;
18883;SDS011;9574;47.282;9.640;2024-02-04T06:48:51;12.87;;;6.67;;
18883;SDS011;9574;47.282;9.640;2024-02-04T06:51:18;15.67;;;6.13;;
18883;SDS011;9574;47.282;9.640;2024-02-04T06:53:45;13.10;;;6.13;;
18883;SDS011;9574;47.282;9.640;2024-02-04T06:56:12;9.63;;;5.30;;
18883;SDS011;9574;47.282;9.640;2024-02-04T06:58:39;7.47;;;4.90;;
18883;SDS011;9574;47.282;9.640;2024-02-04T07:01:08;10.60;;;5.03;;
18883;SDS011;9574;47.282;9.640;2024-02-04T07:03:36;5.57;;;4.40;;
18883;SDS011;9574;47.282;9.640;2024-02-04T07:06:03;7.87;;;4.97;;
18883;SDS011;9574;47.282;9.640;2024-02-04T07:08:30;11.40;;;4.90;;
18883;SDS011;9574;47.282;9.640;2024-02-04T07:10:57;11.17;;;5.43;;
18883;SDS011;9574;47.282;9.640;2024-02-04T07:13:24;10.57;;;5.67;;
18883;SDS011;9574;47.282;9.640;2024-02-04T07:15:51;11.47;;;6.60;;
18883;SDS011;9574;47.282;9.640;2024-02-04T07:18:20;13.70;;;7.73;;
18883;SDS011;9574;47.282;9.640;2024-02-04T07:20:48;9.33;;;6.20;;
18883;SDS011;9574;47.282;9.640;2024-02-04T07:23:15;13.87;;;7.63;;
18883;SDS011;9574;47.282;9.640;2024-02-04T07:25:42;10.20;;;6.67;;
18883;SDS011;9574;47.282;9.640;2024-02-04T07:28:09;8.60;;;5.40;;
18883;SDS011;9574;47.282;9.640;2024-02-04T07:30:36;11.17;;;5.43;;
18883;SDS011;9574;47.282;9.640;2024-02-04T07:33:03;8.67;;;5.73;;
18883;SDS011;9574;47.282;9.640;2024-02-04T07:35:31;10.27;;;5.37;;
18883;SDS011;9574;47.282;9.640;2024-02-04T07:37:58;9.27;;;6.07;;
18883;SDS011;9574;47.282;9.640;2024-02-04T07:40:25;9.73;;;5.83;;
18883;SDS011;9574;47.282;9.640;2024-02-04T07:42:53;13.10;;;6.50;;
18883;SDS011;9574;47.282;9.640;2024-02-04T07:45:20;10.07;;;5.97;;
18883;SDS011;9574;47.282;9.640;2024-02-04T07:47:47;11.40;;;6.63;;
18883;SDS011;9574;47.282;9.640;2024-02-04T07:50:14;11.37;;;6.03;;
18883;SDS011;9574;47.282;9.640;2024-02-04T07:52:42;8.93;;;6.10;;
18883;SDS011;9574;47.282;9.640;2024-02-04T07:55:10;11.10;;;6.03;;
18883;SDS011;9574;47.282;9.640;2024-02-04T07:57:37;10.17;;;6.80;;
18883;SDS011;9574;47.282;9.640;2024-02-04T08:00:04;10.63;;;6.83;;
18883;SDS011;9574;47.282;9.640;2024-02-04T08:02:35;10.57;;;6.40;;
18883;SDS011;9574;47.282;9.640;2024-02-04T08:05:02;12.17;;;6.97;;
18883;SDS011;9574;47.282;9.640;2024-02-04T08:07:30;11.40;;;6.43;;
18883;SDS011;9574;47.282;9.640;2024-02-04T08:09:58;9.53;;;6.57;;
18883;SDS011;9574;47.282;9.640;2024-02-04T08:12:25;11.00;;;6.80;;
18883;SDS011;9574;47.282;9.640;2024-02-04T08:14:52;10.10;;;6.90;;
18883;SDS011;9574;47.282;9.640;2024-02-04T08:17:19;12.70;;;6.77;;
18883;SDS011;9574;47.282;9.640;2024-02-04T08:19:46;13.33;;;7.73;;
18883;SDS011;9574;47.282;9.640;2024-02-04T08:22:13;13.03;;;7.37;;
18883;SDS011;9574;47.282;9.640;2024-02-04T08:24:42;11.20;;;7.30;;
18883;SDS011;9574;47.282;9.640;2024-02-04T08:27:11;10.83;;;6.60;;
18883;SDS011;9574;47.282;9.640;2024-02-04T08:29:41;14.73;;;6.10;;
18883;SDS011;9574;47.282;9.640;2024-02-04T08:32:08;8.20;;;5.30;;
18883;SDS011;9574;47.282;9.640;2024-02-04T08:34:35;7.73;;;5.43;;
18883;SDS011;9574;47.282;9.640;2024-02-04T08:37:02;8.10;;;5.70;;
18883;SDS011;9574;47.282;9.640;2024-02-04T08:39:29;14.77;;;7.50;;
18883;SDS011;9574;47.282;9.640;2024-02-04T08:41:56;12.73;;;7.23;;
18883;SDS011;9574;47.282;9.640;2024-02-04T08:44:24;14.63;;;7.87;;
18883;SDS011;9574;47.282;9.640;2024-02-04T08:46:51;10.73;;;6.40;;
18883;SDS011;9574;47.282;9.640;2024-02-04T08:49:18;11.83;;;7.40;;
18883;SDS011;9574;47.282;9.640;2024-02-04T08:51:45;14.23;;;7.63;;
18883;SDS011;9574;47.282;9.640;2024-02-04T08:54:12;14.73;;;7.37;;
18883;SDS011;9574;47.282;9.640;2024-02-04T08:56:39;11.33;;;6.40;;
18883;SDS011;9574;47.282;9.640;2024-02-04T08:59:06;10.93;;;7.07;;
18883;SDS011;9574;47.282;9.640;2024-02-04T09:01:35;12.87;;;7.03;;
18883;SDS011;9574;47.282;9.640;2024-02-04T09:04:02;10.10;;;6.60;;
18883;SDS011;9574;47.282;9.640;2024-02-04T09:06:29;10.57;;;6.27;;
18883;SDS011;9574;47.282;9.640;2024-02-04T09:08:57;8.87;;;5.60;;
18883;SDS011;9574;47.282;9.640;2024-02-04T09:11:24;10.23;;;5.90;;
18883;SDS011;9574;47.282;9.640;2024-02-04T09:13:50;9.43;;;6.47;;
18883;SDS011;9574;47.282;9.640;2024-02-04T09:16:17;11.27;;;6.80;;
18883;SDS011;9574;47.282;9.640;2024-02-04T09:18:46;13.53;;;8.00;;
18883;SDS011;9574;47.282;9.640;2024-02-04T09:21:13;12.03;;;7.27;;
18883;SDS011;9574;47.282;9.640;2024-02-04T09:23:40;10.20;;;6.73;;
18883;SDS011;9574;47.282;9.640;2024-02-04T09:26:07;11.87;;;6.80;;
18883;SDS011;9574;47.282;9.640;2024-02-04T09:28:34;10.40;;;6.50;;
18883;SDS011;9574;47.282;9.640;2024-02-04T09:31:02;11.67;;;6.80;;
18883;SDS011;9574;47.282;9.640;2024-02-04T09:33:30;10.93;;;7.03;;
18883;SDS011;9574;47.282;9.640;2024-02-04T09:35:58;10.67;;;6.83;;
18883;SDS011;9574;47.282;9.640;2024-02-04T09:38:25;10.10;;;6.60;;
18883;SDS011;9574;47.282;9.640;2024-02-04T09:40:52;8.60;;;5.80;;
18883;SDS011;9574;47.282;9.640;2024-02-04T09:43:19;9.73;;;6.27;;
18883;SDS011;9574;47.282;9.640;2024-02-04T09:45:46;8.83;;;5.93;;
18883;SDS011;9574;47.282;9.640;2024-02-04T09:48:15;8.73;;;6.07;;
18883;SDS011;9574;47.282;9.640;2024-02-04T09:50:45;8.83;;;5.83;;
18883;SDS011;9574;47.282;9.640;2024-02-04T09:53:15;9.10;;;5.97;;
18883;SDS011;9574;47.282;9.640;2024-02-04T09:55:46;8.80;;;5.97;;
18883;SDS011;9574;47.282;9.640;2024-02-04T09:58:15;6.83;;;5.07;;
18883;SDS011;9574;47.282;9.640;2024-02-04T10:00:42;8.77;;;5.63;;
18883;SDS011;9574;47.282;9.640;2024-02-04T10:03:11;7.43;;;5.27;;
18883;SDS011;9574;47.282;9.640;2024-02-04T10:05:38;8.60;;;5.80;;
18883;SDS011;9574;47.282;9.640;2024-02-04T10:08:06;8.40;;;5.77;;
18883;SDS011;9574;47.282;9.640;2024-02-04T10:10:34;8.57;;;5.40;;
18883;SDS011;9574;47.282;9.640;2024-02-04T10:13:04;12.30;;;5.63;;
18883;SDS011;9574;47.282;9.640;2024-02-04T10:15:32;7.93;;;5.30;;
18883;SDS011;9574;47.282;9.640;2024-02-04T10:18:02;8.80;;;5.90;;
18883;SDS011;9574;47.282;9.640;2024-02-04T10:20:30;9.73;;;6.67;;
18883;SDS011;9574;47.282;9.640;2024-02-04T10:22:57;10.73;;;6.23;;
18883;SDS011;9574;47.282;9.640;2024-02-04T10:25:24;10.20;;;5.17;;
18883;SDS011;9574;47.282;9.640;2024-02-04T10:27:53;9.53;;;5.90;;
18883;SDS011;9574;47.282;9.640;2024-02-04T10:30:20;8.60;;;6.13;;
18883;SDS011;9574;47.282;9.640;2024-02-04T10:32:50;9.67;;;6.07;;
18883;SDS011;9574;47.282;9.640;2024-02-04T10:35:18;9.83;;;6.40;;
18883;SDS011;9574;47.282;9.640;2024-02-04T10:37:48;8.30;;;5.73;;
18883;SDS011;9574;47.282;9.640;2024-02-04T10:40:16;9.47;;;6.03;;
18883;SDS011;9574;47.282;9.640;2024-02-04T10:42:44;8.00;;;5.80;;
18883;SDS011;9574;47.282;9.640;2024-02-04T10:45:12;11.20;;;5.90;;
18883;SDS011;9574;47.282;9.640;2024-02-04T10:47:44;9.13;;;5.93;;
18883;SDS011;9574;47.282;9.640;2024-02-04T10:50:17;11.10;;;6.10;;
18883;SDS011;9574;47.282;9.640;2024-02-04T10:52:46;8.90;;;5.63;;
18883;SDS011;9574;47.282;9.640;2024-02-04T10:55:15;9.23;;;6.07;;
18883;SDS011;9574;47.282;9.640;2024-02-04T10:57:47;11.27;;;6.60;;
18883;SDS011;9574;47.282;9.640;2024-02-04T11:00:16;11.50;;;6.93;;
18883;SDS011;9574;47.282;9.640;2024-02-04T11:02:45;11.10;;;6.27;;
18883;SDS011;9574;47.282;9.640;2024-02-04T11:05:33;11.37;;;5.70;;
18883;SDS011;9574;47.282;9.640;2024-02-04T11:08:01;11.17;;;6.23;;
18883;SDS011;9574;47.282;9.640;2024-02-04T11:10:30;9.83;;;6.47;;
18883;SDS011;9574;47.282;9.640;2024-02-04T11:12:58;8.40;;;5.60;;
18883;SDS011;9574;47.282;9.640;2024-02-04T11:15:28;8.27;;;5.67;;
18883;SDS011;9574;47.282;9.640;2024-02-04T11:21:26;8.10;;;5.60;;
18883;SDS011;9574;47.282;9.640;2024-02-04T11:24:08;8.67;;;5.37;;
18883;SDS011;9574;47.282;9.640;2024-02-04T11:26:45;10.27;;;6.37;;
18883;SDS011;9574;47.282;9.640;2024-02-04T11:29:12;7.97;;;5.53;;
18883;SDS011;9574;47.282;9.640;2024-02-04T11:31:41;9.60;;;6.30;;
18883;SDS011;9574;47.282;9.640;2024-02-04T11:34:08;11.47;;;8.03;;
18883;SDS011;9574;47.282;9.640;2024-02-04T11:36:37;12.73;;;7.67;;
18883;SDS011;9574;47.282;9.640;2024-02-04T11:39:11;10.00;;;6.77;;
18883;SDS011;9574;47.282;9.640;2024-02-04T11:41:44;10.83;;;7.63;;
18883;SDS011;9574;47.282;9.640;2024-02-04T11:44:12;10.47;;;6.37;;
18883;SDS011;9574;47.282;9.640;2024-02-04T11:46:47;9.90;;;6.50;;
18883;SDS011;9574;47.282;9.640;2024-02-04T11:49:14;7.43;;;5.50;;
18883;SDS011;9574;47.282;9.640;2024-02-04T11:51:44;8.20;;;5.90;;
18883;SDS011;9574;47.282;9.640;2024-02-04T11:54:14;11.47;;;7.27;;
18883;SDS011;9574;47.282;9.640;2024-02-04T11:56:41;11.17;;;7.50;;
18883;SDS011;9574;47.282;9.640;2024-02-04T11:59:09;9.93;;;6.67;;
18883;SDS011;9574;47.282;9.640;2024-02-04T12:01:37;10.73;;;7.33;;
18883;SDS011;9574;47.282;9.640;2024-02-04T12:04:12;11.47;;;6.67;;
18883;SDS011;9574;47.282;9.640;2024-02-04T12:06:40;10.53;;;6.60;;
18883;SDS011;9574;47.282;9.640;2024-02-04T12:09:07;10.43;;;6.57;;
18883;SDS011;9574;47.282;9.640;2024-02-04T12:11:35;10.13;;;6.20;;
18883;SDS011;9574;47.282;9.640;2024-02-04T12:14:03;10.47;;;6.70;;
18883;SDS011;9574;47.282;9.640;2024-02-04T12:16:31;12.03;;;6.67;;
18883;SDS011;9574;47.282;9.640;2024-02-04T12:19:00;9.87;;;6.37;;
18883;SDS011;9574;47.282;9.640;2024-02-04T12:21:29;8.83;;;6.23;;
18883;SDS011;9574;47.282;9.640;2024-02-04T12:23:57;9.17;;;6.53;;
18883;SDS011;9574;47.282;9.640;2024-02-04T12:26:25;10.50;;;6.80;;
18883;SDS011;9574;47.282;9.640;2024-02-04T12:28:52;10.00;;;6.40;;
18883;SDS011;9574;47.282;9.640;2024-02-04T12:31:21;8.87;;;6.37;;
18883;SDS011;9574;47.282;9.640;2024-02-04T12:33:52;12.50;;;6.87;;
18883;SDS011;9574;47.282;9.640;2024-02-04T12:36:22;9.73;;;6.20;;
18883;SDS011;9574;47.282;9.640;2024-02-04T12:38:53;9.47;;;6.50;;
18883;SDS011;9574;47.282;9.640;2024-02-04T12:41:21;11.43;;;6.90;;
18883;SDS011;9574;47.282;9.640;2024-02-04T12:43:52;9.07;;;6.53;;
18883;SDS011;9574;47.282;9.640;2024-02-04T12:46:20;10.00;;;6.20;;
18883;SDS011;9574;47.282;9.640;2024-02-04T12:48:51;8.60;;;5.60;;
18883;SDS011;9574;47.282;9.640;2024-02-04T12:51:24;9.17;;;6.20;;
18883;SDS011;9574;47.282;9.640;2024-02-04T12:54:03;10.60;;;6.67;;
18883;SDS011;9574;47.282;9.640;2024-02-04T12:56:40;9.43;;;6.17;;
18883;SDS011;9574;47.282;9.640;2024-02-04T12:59:09;7.77;;;5.40;;
18883;SDS011;9574;47.282;9.640;2024-02-04T13:01:36;9.53;;;5.10;;
18883;SDS011;9574;47.282;9.640;2024-02-04T13:04:04;12.37;;;6.13;;
18883;SDS011;9574;47.282;9.640;2024-02-04T13:06:31;9.43;;;5.03;;
18883;SDS011;9574;47.282;9.640;2024-02-04T13:09:05;7.20;;;5.10;;
18883;SDS011;9574;47.282;9.640;2024-02-04T13:11:34;8.83;;;5.60;;
18883;SDS011;9574;47.282;9.640;2024-02-04T13:14:01;7.50;;;5.50;;
18883;SDS011;9574;47.282;9.640;2024-02-04T13:16:28;6.27;;;5.03;;
18883;SDS011;9574;47.282;9.640;2024-02-04T13:18:55;7.60;;;5.00;;
18883;SDS011;9574;47.282;9.640;2024-02-04T13:21:22;7.23;;;5.20;;
18883;SDS011;9574;47.282;9.640;2024-02-04T13:23:50;7.97;;;5.13;;
18883;SDS011;9574;47.282;9.640;2024-02-04T13:26:18;7.47;;;5.00;;
18883;SDS011;9574;47.282;9.640;2024-02-04T13:28:45;8.70;;;4.30;;
18883;SDS011;9574;47.282;9.640;2024-02-04T13:31:13;6.93;;;4.90;;
18883;SDS011;9574;47.282;9.640;2024-02-04T13:33:40;6.80;;;4.20;;
18883;SDS011;9574;47.282;9.640;2024-02-04T13:36:07;7.20;;;5.00;;
18883;SDS011;9574;47.282;9.640;2024-02-04T13:38:34;8.27;;;5.63;;
18883;SDS011;9574;47.282;9.640;2024-02-04T13:41:01;7.00;;;4.80;;
18883;SDS011;9574;47.282;9.640;2024-02-04T13:43:31;8.33;;;5.40;;
18883;SDS011;9574;47.282;9.640;2024-02-04T13:45:59;8.53;;;5.93;;
18883;SDS011;9574;47.282;9.640;2024-02-04T13:48:26;6.90;;;5.20;;
18883;SDS011;9574;47.282;9.640;2024-02-04T13:50:53;8.90;;;5.70;;
18883;SDS011;9574;47.282;9.640;2024-02-04T13:53:20;8.30;;;5.27;;
18883;SDS011;9574;47.282;9.640;2024-02-04T13:55:47;8.80;;;6.10;;
18883;SDS011;9574;47.282;9.640;2024-02-04T13:58:15;7.23;;;5.57;;
18883;SDS011;9574;47.282;9.640;2024-02-04T14:00:44;8.50;;;6.07;;
18883;SDS011;9574;47.282;9.640;2024-02-04T14:03:11;12.07;;;6.57;;
18883;SDS011;9574;47.282;9.640;2024-02-04T14:05:39;9.10;;;6.03;;
18883;SDS011;9574;47.282;9.640;2024-02-04T14:08:06;8.93;;;5.87;;
18883;SDS011;9574;47.282;9.640;2024-02-04T14:10:34;7.10;;;5.13;;
18883;SDS011;9574;47.282;9.640;2024-02-04T14:13:01;9.13;;;5.60;;
18883;SDS011;9574;47.282;9.640;2024-02-04T14:15:29;8.33;;;5.50;;
18883;SDS011;9574;47.282;9.640;2024-02-04T14:17:59;9.60;;;5.77;;
18883;SDS011;9574;47.282;9.640;2024-02-04T14:20:26;6.67;;;4.63;;
18883;SDS011;9574;47.282;9.640;2024-02-04T14:22:53;7.83;;;4.40;;
18883;SDS011;9574;47.282;9.640;2024-02-04T14:25:20;4.83;;;3.77;;
18883;SDS011;9574;47.282;9.640;2024-02-04T14:27:47;8.17;;;4.87;;
18883;SDS011;9574;47.282;9.640;2024-02-04T14:30:14;6.83;;;4.50;;
18883;SDS011;9574;47.282;9.640;2024-02-04T14:32:41;9.93;;;4.87;;
18883;SDS011;9574;47.282;9.640;2024-02-04T14:35:09;7.23;;;4.40;;
18883;SDS011;9574;47.282;9.640;2024-02-04T14:37:36;6.30;;;4.27;;
18883;SDS011;9574;47.282;9.640;2024-02-04T14:40:05;7.50;;;4.40;;
18883;SDS011;9574;47.282;9.640;2024-02-04T14:42:32;9.63;;;4.63;;
18883;SDS011;9574;47.282;9.640;2024-02-04T14:45:00;6.60;;;4.67;;
18883;SDS011;9574;47.282;9.640;2024-02-04T14:47:27;9.07;;;5.03;;
18883;SDS011;9574;47.282;9.640;2024-02-04T14:49:54;6.70;;;4.77;;
18883;SDS011;9574;47.282;9.640;2024-02-04T14:52:23;7.97;;;4.63;;
18883;SDS011;9574;47.282;9.640;2024-02-04T14:54:50;7.77;;;4.60;;
18883;SDS011;9574;47.282;9.640;2024-02-04T14:57:17;8.03;;;5.10;;
18883;SDS011;9574;47.282;9.640;2024-02-04T14:59:45;7.80;;;5.23;;
18883;SDS011;9574;47.282;9.640;2024-02-04T15:02:12;9.20;;;5.67;;
18883;SDS011;9574;47.282;9.640;2024-02-04T15:04:39;7.03;;;5.27;;
18883;SDS011;9574;47.282;9.640;2024-02-04T15:07:06;8.43;;;5.63;;
18883;SDS011;9574;47.282;9.640;2024-02-04T15:09:34;8.83;;;5.43;;